sensor_id;sensor_type;location;lat;lon;timestamp;pressure;altitude;pressure_sealevel;temperature;humidity
43298;BME280;28892;55.640;37.532;2024-03-08T00:01:48;98798.22;;;-0.64;47.82
43298;BME280;28892;55.640;37.532;2024-03-08T00:04:13;98793.84;;;-0.63;46.56
43298;BME280;28892;55.640;37.532;2024-03-08T00:06:41;98781.03;;;-0.55;45.41
43298;BME280;28892;55.640;37.532;2024-03-08T00:09:07;98782.94;;;-0.68;47.83
43298;BME280;28892;55.640;37.532;2024-03-08T00:11:35;98778.00;;;-0.83;48.65
43298;BME280;28892;55.640;37.532;2024-03-08T00:14:01;98775.16;;;-0.80;46.99
43298;BME280;28892;55.640;37.532;2024-03-08T00:16:27;98769.94;;;-0.80;47.72
43298;BME280;28892;55.640;37.532;2024-03-08T00:18:56;98772.06;;;-0.74;46.19
43298;BME280;28892;55.640;37.532;2024-03-08T00:21:21;98771.50;;;-1.11;48.56
43298;BME280;28892;55.640;37.532;2024-03-08T00:23:47;98766.41;;;-1.02;47.59
43298;BME280;28892;55.640;37.532;2024-03-08T00:26:12;98758.50;;;-1.23;49.12
43298;BME280;28892;55.640;37.532;2024-03-08T00:28:38;98767.00;;;-1.09;47.60
43298;BME280;28892;55.640;37.532;2024-03-08T00:31:03;98758.50;;;-1.11;48.09
43298;BME280;28892;55.640;37.532;2024-03-08T00:33:29;98755.88;;;-1.11;46.89
43298;BME280;28892;55.640;37.532;2024-03-08T00:35:55;98748.06;;;-1.00;46.19
43298;BME280;28892;55.640;37.532;2024-03-08T00:38:20;98747.00;;;-0.97;46.43
43298;BME280;28892;55.640;37.532;2024-03-08T00:40:46;98750.69;;;-1.00;47.45
43298;BME280;28892;55.640;37.532;2024-03-08T00:43:12;98738.63;;;-1.24;48.89
43298;BME280;28892;55.640;37.532;2024-03-08T00:45:37;98744.28;;;-1.19;47.10
43298;BME280;28892;55.640;37.532;2024-03-08T00:48:03;98739.44;;;-1.23;48.57
43298;BME280;28892;55.640;37.532;2024-03-08T00:50:29;98740.97;;;-1.32;47.78
43298;BME280;28892;55.640;37.532;2024-03-08T00:52:54;98727.00;;;-1.08;46.82
43298;BME280;28892;55.640;37.532;2024-03-08T00:55:21;98722.38;;;-0.93;46.14
43298;BME280;28892;55.640;37.532;2024-03-08T00:57:46;98730.19;;;-0.82;45.96
43298;BME280;28892;55.640;37.532;2024-03-08T01:00:12;98713.59;;;-0.81;45.91
43298;BME280;28892;55.640;37.532;2024-03-08T01:02:38;98715.72;;;-0.75;45.48
43298;BME280;28892;55.640;37.532;2024-03-08T01:05:04;98710.75;;;-0.89;47.58
43298;BME280;28892;55.640;37.532;2024-03-08T01:07:35;98711.72;;;-1.02;47.44
43298;BME280;28892;55.640;37.532;2024-03-08T01:10:04;98705.84;;;-1.27;49.43
43298;BME280;28892;55.640;37.532;2024-03-08T01:12:34;98704.06;;;-1.49;50.27
43298;BME280;28892;55.640;37.532;2024-03-08T01:15:00;98704.28;;;-1.63;50.63
43298;BME280;28892;55.640;37.532;2024-03-08T01:17:25;98698.25;;;-1.64;50.18
43298;BME280;28892;55.640;37.532;2024-03-08T01:19:52;98704.03;;;-1.83;51.45
43298;BME280;28892;55.640;37.532;2024-03-08T01:22:21;98684.69;;;-1.45;48.47
43298;BME280;28892;55.640;37.532;2024-03-08T01:24:48;98685.13;;;-1.17;48.49
43298;BME280;28892;55.640;37.532;2024-03-08T01:27:13;98692.69;;;-1.36;48.52
43298;BME280;28892;55.640;37.532;2024-03-08T01:29:39;98684.31;;;-1.29;48.01
43298;BME280;28892;55.640;37.532;2024-03-08T01:32:04;98682.28;;;-1.48;49.93
43298;BME280;28892;55.640;37.532;2024-03-08T01:34:31;98676.53;;;-1.51;49.91
43298;BME280;28892;55.640;37.532;2024-03-08T01:36:58;98681.22;;;-1.34;48.21
43298;BME280;28892;55.640;37.532;2024-03-08T01:39:24;98680.41;;;-1.23;48.17
43298;BME280;28892;55.640;37.532;2024-03-08T01:41:50;98688.81;;;-1.08;47.32
43298;BME280;28892;55.640;37.532;2024-03-08T01:44:15;98683.78;;;-1.00;47.08
43298;BME280;28892;55.640;37.532;2024-03-08T01:46:46;98684.97;;;-0.92;46.77
43298;BME280;28892;55.640;37.532;2024-03-08T01:49:12;98676.44;;;-0.83;46.35
43298;BME280;28892;55.640;37.532;2024-03-08T01:51:39;98670.88;;;-0.78;47.06
43298;BME280;28892;55.640;37.532;2024-03-08T01:54:05;98670.56;;;-0.96;47.48
43298;BME280;28892;55.640;37.532;2024-03-08T01:56:32;98666.75;;;-0.92;47.35
43298;BME280;28892;55.640;37.532;2024-03-08T01:58:58;98668.56;;;-1.16;48.17
43298;BME280;28892;55.640;37.532;2024-03-08T02:01:24;98665.59;;;-1.11;48.45
43298;BME280;28892;55.640;37.532;2024-03-08T02:03:50;98670.75;;;-0.88;47.00
43298;BME280;28892;55.640;37.532;2024-03-08T02:06:16;98673.56;;;-0.80;46.48
43298;BME280;28892;55.640;37.532;2024-03-08T02:08:42;98672.59;;;-0.67;46.24
43298;BME280;28892;55.640;37.532;2024-03-08T02:11:09;98679.56;;;-0.57;46.34
43298;BME280;28892;55.640;37.532;2024-03-08T02:13:35;98676.00;;;-0.55;46.04
43298;BME280;28892;55.640;37.532;2024-03-08T02:16:00;98671.66;;;-0.78;47.46
43298;BME280;28892;55.640;37.532;2024-03-08T02:18:46;98669.84;;;-1.10;47.92
43298;BME280;28892;55.640;37.532;2024-03-08T02:21:12;98660.88;;;-1.06;47.87
43298;BME280;28892;55.640;37.532;2024-03-08T02:23:37;98656.25;;;-1.02;47.28
43298;BME280;28892;55.640;37.532;2024-03-08T02:26:03;98655.53;;;-1.04;47.45
43298;BME280;28892;55.640;37.532;2024-03-08T02:28:30;98655.06;;;-1.09;47.91
43298;BME280;28892;55.640;37.532;2024-03-08T02:30:55;98653.09;;;-1.17;47.74
43298;BME280;28892;55.640;37.532;2024-03-08T02:33:21;98655.72;;;-1.40;48.56
43298;BME280;28892;55.640;37.532;2024-03-08T02:35:47;98653.44;;;-1.33;48.33
43298;BME280;28892;55.640;37.532;2024-03-08T02:38:13;98657.94;;;-1.47;48.63
43298;BME280;28892;55.640;37.532;2024-03-08T02:40:45;98650.47;;;-1.97;51.20
43298;BME280;28892;55.640;37.532;2024-03-08T02:43:11;98645.38;;;-2.10;50.46
43298;BME280;28892;55.640;37.532;2024-03-08T02:45:37;98653.53;;;-2.50;53.02
43298;BME280;28892;55.640;37.532;2024-03-08T02:48:03;98647.59;;;-2.17;50.77
43298;BME280;28892;55.640;37.532;2024-03-08T02:50:29;98653.31;;;-2.36;52.53
43298;BME280;28892;55.640;37.532;2024-03-08T02:52:55;98651.47;;;-2.22;51.80
43298;BME280;28892;55.640;37.532;2024-03-08T02:55:20;98649.16;;;-2.03;49.89
43298;BME280;28892;55.640;37.532;2024-03-08T02:57:46;98648.97;;;-1.88;49.09
43298;BME280;28892;55.640;37.532;2024-03-08T03:00:14;98650.09;;;-2.04;50.70
43298;BME280;28892;55.640;37.532;2024-03-08T03:02:41;98642.91;;;-1.89;49.71
43298;BME280;28892;55.640;37.532;2024-03-08T03:05:07;98635.34;;;-1.92;49.94
43298;BME280;28892;55.640;37.532;2024-03-08T03:07:35;98640.03;;;-2.08;50.41
43298;BME280;28892;55.640;37.532;2024-03-08T03:10:01;98629.44;;;-1.94;48.92
43298;BME280;28892;55.640;37.532;2024-03-08T03:12:30;98622.81;;;-1.98;49.59
43298;BME280;28892;55.640;37.532;2024-03-08T03:14:56;98616.22;;;-1.79;49.17
43298;BME280;28892;55.640;37.532;2024-03-08T03:17:25;98622.13;;;-1.66;48.77
43298;BME280;28892;55.640;37.532;2024-03-08T03:19:51;98611.47;;;-1.63;49.12
43298;BME280;28892;55.640;37.532;2024-03-08T03:22:21;98609.56;;;-2.06;50.59
43298;BME280;28892;55.640;37.532;2024-03-08T03:24:46;98607.88;;;-2.30;51.21
43298;BME280;28892;55.640;37.532;2024-03-08T03:27:13;98605.66;;;-2.23;49.59
43298;BME280;28892;55.640;37.532;2024-03-08T03:29:39;98601.28;;;-2.34;50.78
43298;BME280;28892;55.640;37.532;2024-03-08T03:32:05;98602.16;;;-2.58;51.92
43298;BME280;28892;55.640;37.532;2024-03-08T03:34:33;98601.00;;;-2.43;50.38
43298;BME280;28892;55.640;37.532;2024-03-08T03:37:01;98602.19;;;-2.47;51.74
43298;BME280;28892;55.640;37.532;2024-03-08T03:39:28;98598.06;;;-2.38;50.67
43298;BME280;28892;55.640;37.532;2024-03-08T03:41:57;98603.97;;;-2.36;51.07
43298;BME280;28892;55.640;37.532;2024-03-08T03:44:22;98595.13;;;-2.33;49.86
43298;BME280;28892;55.640;37.532;2024-03-08T03:46:49;98587.25;;;-2.20;49.53
43298;BME280;28892;55.640;37.532;2024-03-08T03:49:16;98584.72;;;-2.33;50.62
43298;BME280;28892;55.640;37.532;2024-03-08T03:51:42;98577.34;;;-2.62;52.80
43298;BME280;28892;55.640;37.532;2024-03-08T03:54:08;98573.81;;;-2.50;51.08
43298;BME280;28892;55.640;37.532;2024-03-08T03:56:33;98583.75;;;-2.55;52.15
43298;BME280;28892;55.640;37.532;2024-03-08T03:58:59;98574.69;;;-2.38;50.93
43298;BME280;28892;55.640;37.532;2024-03-08T04:01:24;98572.91;;;-2.49;51.01
43298;BME280;28892;55.640;37.532;2024-03-08T04:03:50;98574.97;;;-2.65;52.93
43298;BME280;28892;55.640;37.532;2024-03-08T04:06:16;98579.25;;;-2.53;50.78
43298;BME280;28892;55.640;37.532;2024-03-08T04:08:41;98582.59;;;-2.40;51.13
43298;BME280;28892;55.640;37.532;2024-03-08T04:11:07;98576.50;;;-2.27;51.33
43298;BME280;28892;55.640;37.532;2024-03-08T04:13:34;98573.00;;;-2.50;51.63
43298;BME280;28892;55.640;37.532;2024-03-08T04:15:59;98583.06;;;-2.46;51.51
43298;BME280;28892;55.640;37.532;2024-03-08T04:18:25;98575.75;;;-2.41;51.33
43298;BME280;28892;55.640;37.532;2024-03-08T04:20:51;98576.59;;;-2.29;51.10
43298;BME280;28892;55.640;37.532;2024-03-08T04:23:16;98563.38;;;-2.14;51.61
43298;BME280;28892;55.640;37.532;2024-03-08T04:25:43;98562.56;;;-2.03;51.55
43298;BME280;28892;55.640;37.532;2024-03-08T04:28:09;98565.97;;;-2.26;52.31
43298;BME280;28892;55.640;37.532;2024-03-08T04:30:38;98567.97;;;-2.18;51.58
43298;BME280;28892;55.640;37.532;2024-03-08T04:33:05;98562.91;;;-2.19;51.14
43298;BME280;28892;55.640;37.532;2024-03-08T04:35:32;98570.00;;;-2.33;52.50
43298;BME280;28892;55.640;37.532;2024-03-08T04:37:57;98561.03;;;-2.17;52.09
43298;BME280;28892;55.640;37.532;2024-03-08T04:40:23;98565.69;;;-2.45;52.55
43298;BME280;28892;55.640;37.532;2024-03-08T04:42:49;98565.03;;;-2.72;54.41
43298;BME280;28892;55.640;37.532;2024-03-08T04:45:16;98566.50;;;-3.16;56.35
43298;BME280;28892;55.640;37.532;2024-03-08T04:47:42;98562.91;;;-2.78;54.14
43298;BME280;28892;55.640;37.532;2024-03-08T04:50:07;98566.53;;;-2.81;54.97
43298;BME280;28892;55.640;37.532;2024-03-08T04:52:37;98565.19;;;-2.98;56.05
43298;BME280;28892;55.640;37.532;2024-03-08T04:55:02;98557.97;;;-2.70;54.52
43298;BME280;28892;55.640;37.532;2024-03-08T04:57:31;98555.78;;;-2.51;53.41
43298;BME280;28892;55.640;37.532;2024-03-08T04:59:59;98558.34;;;-2.63;54.09
43298;BME280;28892;55.640;37.532;2024-03-08T05:02:25;98571.47;;;-2.89;55.89
43298;BME280;28892;55.640;37.532;2024-03-08T05:04:51;98545.22;;;-2.73;53.93
43298;BME280;28892;55.640;37.532;2024-03-08T05:07:16;98548.34;;;-2.45;53.09
43298;BME280;28892;55.640;37.532;2024-03-08T05:09:42;98557.91;;;-2.34;53.35
43298;BME280;28892;55.640;37.532;2024-03-08T05:12:08;98556.75;;;-2.41;53.28
43298;BME280;28892;55.640;37.532;2024-03-08T05:14:33;98548.06;;;-2.64;54.41
43298;BME280;28892;55.640;37.532;2024-03-08T05:17:00;98557.44;;;-2.50;53.84
43298;BME280;28892;55.640;37.532;2024-03-08T05:19:26;98553.25;;;-2.64;55.46
43298;BME280;28892;55.640;37.532;2024-03-08T05:21:52;98546.31;;;-2.64;55.41
43298;BME280;28892;55.640;37.532;2024-03-08T05:24:18;98544.13;;;-2.34;54.06
43298;BME280;28892;55.640;37.532;2024-03-08T05:26:44;98542.06;;;-2.65;56.20
43298;BME280;28892;55.640;37.532;2024-03-08T05:29:10;98533.72;;;-2.34;54.05
43298;BME280;28892;55.640;37.532;2024-03-08T05:31:49;98537.03;;;-2.21;53.17
43298;BME280;28892;55.640;37.532;2024-03-08T05:34:16;98532.69;;;-2.09;52.87
43298;BME280;28892;55.640;37.532;2024-03-08T05:36:42;98526.28;;;-2.28;54.79
43298;BME280;28892;55.640;37.532;2024-03-08T05:39:18;98532.31;;;-2.27;53.83
43298;BME280;28892;55.640;37.532;2024-03-08T05:41:45;98534.19;;;-2.41;55.03
43298;BME280;28892;55.640;37.532;2024-03-08T05:44:11;98538.81;;;-2.33;54.52
43298;BME280;28892;55.640;37.532;2024-03-08T05:46:37;98535.63;;;-2.36;55.31
43298;BME280;28892;55.640;37.532;2024-03-08T05:49:03;98535.47;;;-2.46;56.41
43298;BME280;28892;55.640;37.532;2024-03-08T05:51:31;98541.94;;;-2.52;57.36
43298;BME280;28892;55.640;37.532;2024-03-08T05:53:57;98537.56;;;-2.63;57.26
43298;BME280;28892;55.640;37.532;2024-03-08T05:56:23;98539.16;;;-2.37;55.59
43298;BME280;28892;55.640;37.532;2024-03-08T05:58:49;98550.44;;;-2.50;57.71
43298;BME280;28892;55.640;37.532;2024-03-08T06:01:15;98551.75;;;-2.56;57.79
43298;BME280;28892;55.640;37.532;2024-03-08T06:03:41;98545.03;;;-2.58;57.64
43298;BME280;28892;55.640;37.532;2024-03-08T06:06:13;98540.69;;;-2.35;55.85
43298;BME280;28892;55.640;37.532;2024-03-08T06:08:39;98539.97;;;-2.26;56.39
43298;BME280;28892;55.640;37.532;2024-03-08T06:11:05;98540.59;;;-2.22;56.64
43298;BME280;28892;55.640;37.532;2024-03-08T06:13:32;98543.88;;;-1.97;54.79
43298;BME280;28892;55.640;37.532;2024-03-08T06:15:59;98535.25;;;-1.75;54.05
43298;BME280;28892;55.640;37.532;2024-03-08T06:18:26;98536.06;;;-1.74;54.30
43298;BME280;28892;55.640;37.532;2024-03-08T06:20:52;98528.53;;;-1.77;53.99
43298;BME280;28892;55.640;37.532;2024-03-08T06:23:18;98529.84;;;-2.06;55.82
43298;BME280;28892;55.640;37.532;2024-03-08T06:25:44;98538.44;;;-2.17;56.36
43298;BME280;28892;55.640;37.532;2024-03-08T06:28:10;98526.03;;;-1.90;54.88
43298;BME280;28892;55.640;37.532;2024-03-08T06:30:36;98529.84;;;-2.29;57.01
43298;BME280;28892;55.640;37.532;2024-03-08T06:33:02;98530.44;;;-2.14;55.75
43298;BME280;28892;55.640;37.532;2024-03-08T06:35:29;98530.53;;;-2.04;55.48
43298;BME280;28892;55.640;37.532;2024-03-08T06:37:58;98524.19;;;-2.11;56.08
43298;BME280;28892;55.640;37.532;2024-03-08T06:40:23;98532.91;;;-1.89;54.71
43298;BME280;28892;55.640;37.532;2024-03-08T06:42:49;98530.53;;;-1.81;54.80
43298;BME280;28892;55.640;37.532;2024-03-08T06:45:17;98525.53;;;-1.61;54.02
43298;BME280;28892;55.640;37.532;2024-03-08T06:47:48;98533.09;;;-1.58;54.33
43298;BME280;28892;55.640;37.532;2024-03-08T06:50:14;98533.47;;;-1.86;55.31
43298;BME280;28892;55.640;37.532;2024-03-08T06:52:40;98529.22;;;-1.87;55.28
43298;BME280;28892;55.640;37.532;2024-03-08T06:55:16;98528.41;;;-1.76;55.41
43298;BME280;28892;55.640;37.532;2024-03-08T06:57:43;98530.16;;;-1.76;55.26
43298;BME280;28892;55.640;37.532;2024-03-08T07:00:12;98532.56;;;-1.73;55.81
43298;BME280;28892;55.640;37.532;2024-03-08T07:02:46;98525.44;;;-1.60;54.98
43298;BME280;28892;55.640;37.532;2024-03-08T07:05:15;98520.41;;;-1.40;54.23
43298;BME280;28892;55.640;37.532;2024-03-08T07:07:42;98525.13;;;-1.34;54.12
43298;BME280;28892;55.640;37.532;2024-03-08T07:10:10;98533.63;;;-1.32;53.82
43298;BME280;28892;55.640;37.532;2024-03-08T07:12:39;98527.25;;;-1.28;54.09
43298;BME280;28892;55.640;37.532;2024-03-08T07:15:06;98527.44;;;-1.19;53.47
43298;BME280;28892;55.640;37.532;2024-03-08T07:17:32;98528.16;;;-1.17;53.78
43298;BME280;28892;55.640;37.532;2024-03-08T07:20:00;98519.66;;;-0.98;53.05
43298;BME280;28892;55.640;37.532;2024-03-08T07:22:33;98528.47;;;-1.10;54.32
43298;BME280;28892;55.640;37.532;2024-03-08T07:25:02;98527.09;;;-0.93;53.19
43298;BME280;28892;55.640;37.532;2024-03-08T07:27:53;98517.97;;;-0.88;53.05
43298;BME280;28892;55.640;37.532;2024-03-08T07:30:25;98527.56;;;-0.67;52.55
43298;BME280;28892;55.640;37.532;2024-03-08T07:33:23;98534.31;;;-0.64;52.92
43298;BME280;28892;55.640;37.532;2024-03-08T07:35:51;98531.19;;;-0.58;52.38
43298;BME280;28892;55.640;37.532;2024-03-08T07:38:17;98539.16;;;-0.92;54.55
43298;BME280;28892;55.640;37.532;2024-03-08T07:40:49;98531.63;;;-0.74;53.33
43298;BME280;28892;55.640;37.532;2024-03-08T07:43:15;98533.47;;;-0.65;53.57
43298;BME280;28892;55.640;37.532;2024-03-08T07:45:40;98532.88;;;-0.68;53.46
43298;BME280;28892;55.640;37.532;2024-03-08T07:48:07;98531.19;;;-0.58;53.26
43298;BME280;28892;55.640;37.532;2024-03-08T07:50:36;98512.75;;;-0.45;52.81
43298;BME280;28892;55.640;37.532;2024-03-08T07:53:02;98529.59;;;-0.92;54.71
43298;BME280;28892;55.640;37.532;2024-03-08T07:55:29;98533.28;;;-0.52;53.19
43298;BME280;28892;55.640;37.532;2024-03-08T07:57:57;98520.75;;;-0.37;52.53
43298;BME280;28892;55.640;37.532;2024-03-08T08:00:23;98525.75;;;-0.24;52.36
43298;BME280;28892;55.640;37.532;2024-03-08T08:02:52;98521.84;;;-0.08;52.47
43298;BME280;28892;55.640;37.532;2024-03-08T08:05:18;98513.47;;;-0.33;53.00
43298;BME280;28892;55.640;37.532;2024-03-08T08:07:44;98519.16;;;-0.49;53.39
43298;BME280;28892;55.640;37.532;2024-03-08T08:10:10;98518.06;;;-0.47;53.38
43298;BME280;28892;55.640;37.532;2024-03-08T08:12:46;98517.97;;;-0.45;53.69
43298;BME280;28892;55.640;37.532;2024-03-08T08:15:15;98505.44;;;-0.20;52.34
43298;BME280;28892;55.640;37.532;2024-03-08T08:17:44;98505.34;;;-0.09;52.71
43298;BME280;28892;55.640;37.532;2024-03-08T08:20:10;98504.00;;;-0.03;52.56
43298;BME280;28892;55.640;37.532;2024-03-08T08:22:40;98509.56;;;0.13;52.17
43298;BME280;28892;55.640;37.532;2024-03-08T08:25:07;98504.34;;;0.13;52.30
43298;BME280;28892;55.640;37.532;2024-03-08T08:27:32;98515.19;;;0.09;52.52
43298;BME280;28892;55.640;37.532;2024-03-08T08:29:58;98517.69;;;0.30;51.90
43298;BME280;28892;55.640;37.532;2024-03-08T08:32:32;98521.31;;;-0.02;53.49
43298;BME280;28892;55.640;37.532;2024-03-08T08:34:59;98516.34;;;-0.05;53.49
43298;BME280;28892;55.640;37.532;2024-03-08T08:37:25;98513.84;;;0.24;52.41
43298;BME280;28892;55.640;37.532;2024-03-08T08:40:00;98508.84;;;0.02;52.94
43298;BME280;28892;55.640;37.532;2024-03-08T08:42:32;98501.47;;;0.26;52.44
43298;BME280;28892;55.640;37.532;2024-03-08T08:45:11;98505.63;;;0.29;51.95
43298;BME280;28892;55.640;37.532;2024-03-08T08:47:46;98508.50;;;0.36;51.98
43298;BME280;28892;55.640;37.532;2024-03-08T08:50:19;98505.66;;;0.49;51.54
43298;BME280;28892;55.640;37.532;2024-03-08T08:53:00;98508.13;;;0.40;52.25
43298;BME280;28892;55.640;37.532;2024-03-08T08:55:28;98510.34;;;0.55;51.32
43298;BME280;28892;55.640;37.532;2024-03-08T08:57:55;98509.47;;;0.25;52.51
43298;BME280;28892;55.640;37.532;2024-03-08T09:00:28;98510.88;;;-0.02;54.08
43298;BME280;28892;55.640;37.532;2024-03-08T09:03:03;98521.09;;;0.11;53.59
43298;BME280;28892;55.640;37.532;2024-03-08T09:05:33;98509.75;;;0.32;52.66
43298;BME280;28892;55.640;37.532;2024-03-08T09:07:59;98510.34;;;0.65;51.93
43298;BME280;28892;55.640;37.532;2024-03-08T09:10:26;98503.56;;;0.43;53.09
43298;BME280;28892;55.640;37.532;2024-03-08T09:12:53;98497.44;;;0.44;53.16
43298;BME280;28892;55.640;37.532;2024-03-08T09:15:20;98513.25;;;0.62;51.95
43298;BME280;28892;55.640;37.532;2024-03-08T09:17:46;98507.22;;;0.81;51.81
43298;BME280;28892;55.640;37.532;2024-03-08T09:20:13;98504.06;;;0.87;51.99
43298;BME280;28892;55.640;37.532;2024-03-08T09:22:44;98498.38;;;1.11;51.15
43298;BME280;28892;55.640;37.532;2024-03-08T09:25:11;98504.19;;;0.86;51.46
43298;BME280;28892;55.640;37.532;2024-03-08T09:27:37;98495.53;;;0.65;52.43
43298;BME280;28892;55.640;37.532;2024-03-08T09:30:05;98494.00;;;0.92;51.73
43298;BME280;28892;55.640;37.532;2024-03-08T09:32:35;98490.44;;;1.03;51.63
43298;BME280;28892;55.640;37.532;2024-03-08T09:35:03;98494.97;;;0.91;52.39
43298;BME280;28892;55.640;37.532;2024-03-08T09:37:29;98487.94;;;1.11;51.60
43298;BME280;28892;55.640;37.532;2024-03-08T09:39:58;98488.63;;;1.14;51.78
43298;BME280;28892;55.640;37.532;2024-03-08T09:42:25;98492.03;;;1.24;51.28
43298;BME280;28892;55.640;37.532;2024-03-08T09:44:52;98488.31;;;1.46;51.03
43298;BME280;28892;55.640;37.532;2024-03-08T09:47:23;98491.91;;;1.73;50.44
43298;BME280;28892;55.640;37.532;2024-03-08T09:49:50;98490.88;;;1.66;51.20
43298;BME280;28892;55.640;37.532;2024-03-08T09:52:16;98483.75;;;1.58;50.97
43298;BME280;28892;55.640;37.532;2024-03-08T09:54:43;98483.41;;;1.71;51.05
43298;BME280;28892;55.640;37.532;2024-03-08T09:57:09;98483.75;;;1.58;51.48
43298;BME280;28892;55.640;37.532;2024-03-08T09:59:36;98487.34;;;1.85;50.72
43298;BME280;28892;55.640;37.532;2024-03-08T10:02:02;98490.81;;;1.86;50.60
43298;BME280;28892;55.640;37.532;2024-03-08T10:04:28;98484.84;;;1.93;50.54
43298;BME280;28892;55.640;37.532;2024-03-08T10:07:00;98481.19;;;2.04;50.33
43298;BME280;28892;55.640;37.532;2024-03-08T10:09:26;98484.00;;;1.93;50.91
43298;BME280;28892;55.640;37.532;2024-03-08T10:11:55;98491.03;;;1.92;50.82
43298;BME280;28892;55.640;37.532;2024-03-08T10:14:21;98488.38;;;1.64;52.40
43298;BME280;28892;55.640;37.532;2024-03-08T10:17:01;98486.97;;;2.08;50.81
43298;BME280;28892;55.640;37.532;2024-03-08T10:19:29;98489.09;;;1.94;50.89
43298;BME280;28892;55.640;37.532;2024-03-08T10:22:26;98486.34;;;1.96;51.25
43298;BME280;28892;55.640;37.532;2024-03-08T10:24:52;98489.28;;;1.45;53.01
43298;BME280;28892;55.640;37.532;2024-03-08T10:27:18;98483.75;;;1.86;51.57
43298;BME280;28892;55.640;37.532;2024-03-08T10:29:51;98467.44;;;2.02;51.31
43298;BME280;28892;55.640;37.532;2024-03-08T10:32:18;98476.56;;;1.98;51.45
43298;BME280;28892;55.640;37.532;2024-03-08T10:34:45;98479.28;;;2.06;50.66
43298;BME280;28892;55.640;37.532;2024-03-08T10:37:18;98475.50;;;2.19;50.76
43298;BME280;28892;55.640;37.532;2024-03-08T10:40:03;98480.66;;;2.29;50.34
43298;BME280;28892;55.640;37.532;2024-03-08T10:42:40;98471.44;;;2.06;51.46
43298;BME280;28892;55.640;37.532;2024-03-08T10:45:55;98467.22;;;2.42;50.66
43298;BME280;28892;55.640;37.532;2024-03-08T10:48:04;98479.84;;;2.28;50.52
43298;BME280;28892;55.640;37.532;2024-03-08T10:50:39;98476.16;;;2.21;50.70
43298;BME280;28892;55.640;37.532;2024-03-08T10:53:09;98480.03;;;1.89;52.10
43298;BME280;28892;55.640;37.532;2024-03-08T10:55:41;98476.25;;;2.01;51.62
43298;BME280;28892;55.640;37.532;2024-03-08T10:58:12;98472.00;;;2.28;51.16
43298;BME280;28892;55.640;37.532;2024-03-08T11:00:38;98466.56;;;2.40;51.38
43298;BME280;28892;55.640;37.532;2024-03-08T11:03:04;98473.34;;;2.32;51.31
43298;BME280;28892;55.640;37.532;2024-03-08T11:05:37;98471.41;;;2.53;51.05
43298;BME280;28892;55.640;37.532;2024-03-08T11:10:51;98463.50;;;2.81;50.52
43298;BME280;28892;55.640;37.532;2024-03-08T11:22:00;98474.50;;;2.66;50.84
43298;BME280;28892;55.640;37.532;2024-03-08T11:24:26;98469.00;;;2.41;51.38
43298;BME280;28892;55.640;37.532;2024-03-08T11:26:56;98473.88;;;2.72;50.65
43298;BME280;28892;55.640;37.532;2024-03-08T11:34:32;98466.84;;;2.55;50.98
43298;BME280;28892;55.640;37.532;2024-03-08T11:36:59;98472.91;;;2.55;50.71
43298;BME280;28892;55.640;37.532;2024-03-08T11:39:27;98471.78;;;2.40;51.70
43298;BME280;28892;55.640;37.532;2024-03-08T11:41:54;98477.63;;;2.51;51.52
43298;BME280;28892;55.640;37.532;2024-03-08T11:44:21;98474.19;;;2.69;50.69
43298;BME280;28892;55.640;37.532;2024-03-08T11:46:46;98470.16;;;2.39;51.31
43298;BME280;28892;55.640;37.532;2024-03-08T11:49:13;98479.66;;;2.40;51.40
43298;BME280;28892;55.640;37.532;2024-03-08T11:51:40;98468.09;;;2.32;51.52
43298;BME280;28892;55.640;37.532;2024-03-08T11:54:06;98478.81;;;2.11;51.93
43298;BME280;28892;55.640;37.532;2024-03-08T11:56:32;98474.75;;;1.99;52.20
43298;BME280;28892;55.640;37.532;2024-03-08T11:58:59;98470.22;;;2.01;52.95
43298;BME280;28892;55.640;37.532;2024-03-08T12:01:26;98466.44;;;2.13;52.41
43298;BME280;28892;55.640;37.532;2024-03-08T12:03:53;98466.38;;;1.95;52.29
43298;BME280;28892;55.640;37.532;2024-03-08T12:06:20;98468.94;;;1.77;53.83
43298;BME280;28892;55.640;37.532;2024-03-08T12:08:46;98469.53;;;1.99;53.55
43298;BME280;28892;55.640;37.532;2024-03-08T12:11:22;98465.94;;;2.28;52.23
43298;BME280;28892;55.640;37.532;2024-03-08T12:13:51;98467.84;;;2.07;53.02
43298;BME280;28892;55.640;37.532;2024-03-08T12:16:17;98472.91;;;2.09;53.14
43298;BME280;28892;55.640;37.532;2024-03-08T12:18:44;98467.44;;;2.30;52.13
43298;BME280;28892;55.640;37.532;2024-03-08T12:21:13;98465.72;;;2.39;51.84
43298;BME280;28892;55.640;37.532;2024-03-08T12:23:45;98463.56;;;2.53;51.49
43298;BME280;28892;55.640;37.532;2024-03-08T12:26:12;98476.13;;;2.49;51.39
43298;BME280;28892;55.640;37.532;2024-03-08T12:28:43;98465.28;;;2.44;51.56
43298;BME280;28892;55.640;37.532;2024-03-08T12:31:16;98465.78;;;2.29;52.38
43298;BME280;28892;55.640;37.532;2024-03-08T12:33:49;98476.19;;;2.11;53.04
43298;BME280;28892;55.640;37.532;2024-03-08T12:36:15;98470.06;;;2.30;52.07
43298;BME280;28892;55.640;37.532;2024-03-08T12:38:44;98461.34;;;2.12;52.94
43298;BME280;28892;55.640;37.532;2024-03-08T12:41:20;98473.34;;;2.32;52.50
43298;BME280;28892;55.640;37.532;2024-03-08T12:43:55;98474.91;;;2.43;52.16
43298;BME280;28892;55.640;37.532;2024-03-08T12:46:21;98477.69;;;2.23;53.20
43298;BME280;28892;55.640;37.532;2024-03-08T12:48:52;98473.59;;;2.57;51.72
43298;BME280;28892;55.640;37.532;2024-03-08T12:51:19;98473.44;;;2.77;51.33
43298;BME280;28892;55.640;37.532;2024-03-08T12:53:51;98475.94;;;2.60;51.42
43298;BME280;28892;55.640;37.532;2024-03-08T12:56:30;98479.03;;;2.46;52.01
43298;BME280;28892;55.640;37.532;2024-03-08T12:59:00;98480.03;;;2.63;50.94
43298;BME280;28892;55.640;37.532;2024-03-08T13:01:27;98472.38;;;2.33;52.58
43298;BME280;28892;55.640;37.532;2024-03-08T13:03:53;98477.38;;;2.27;52.78
43298;BME280;28892;55.640;37.532;2024-03-08T13:06:24;98481.06;;;2.34;52.20
43298;BME280;28892;55.640;37.532;2024-03-08T13:08:50;98479.78;;;2.10;52.79
43298;BME280;28892;55.640;37.532;2024-03-08T13:11:23;98479.56;;;2.31;52.13
43298;BME280;28892;55.640;37.532;2024-03-08T13:13:50;98479.97;;;2.08;53.26